Time;durP1;ratioP1;P1;durP2;ratioP2;P2;SDS_P1;SDS_P2;PMS_P1;PMS_P2;Temp;Humidity;BMP_temperature;BMP_pressure;BME280_temperature;BME280_humidity;BME280_pressure;Samples;Min_cycle;Max_cycle;Signal;HPM_P1;HPM_P2
2023/01/19 00:01:14;;;;;;;2.95;2.70;;;1.50;99.90;;;;;;5031820;28;20202;-77
2023/01/19 00:03:41;;;;;;;0.88;0.70;;;1.50;99.90;;;;;;5032050;28;20234;-77
2023/01/19 00:06:09;;;;;;;3.58;2.47;;;1.40;99.90;;;;;;5031882;28;20270;-77
2023/01/19 00:08:36;;;;;;;5.45;4.43;;;1.40;99.90;;;;;;5031606;28;20195;-77
2023/01/19 00:11:03;;;;;;;6.78;3.78;;;1.50;99.90;;;;;;5031482;28;20286;-77
2023/01/19 00:13:30;;;;;;;3.33;2.53;;;1.50;99.90;;;;;;5032356;28;20201;-76
2023/01/19 00:15:58;;;;;;;3.70;3.35;;;1.60;99.90;;;;;;5033676;28;20302;-77
2023/01/19 00:18:25;;;;;;;5.55;4.90;;;1.60;99.90;;;;;;5036068;28;20286;-77
2023/01/19 00:20:52;;;;;;;5.93;5.43;;;1.60;99.90;;;;;;5035759;28;20199;-77
2023/01/19 00:23:19;;;;;;;7.10;4.72;;;1.50;99.90;;;;;;5036049;28;20195;-77
2023/01/19 00:25:48;;;;;;;2.25;2.13;;;1.50;99.90;;;;;;5034289;28;20739;-77
2023/01/19 00:28:17;;;;;;;5.95;5.35;;;1.50;99.90;;;;;;5035727;28;20668;-77
2023/01/19 00:30:44;;;;;;;10.32;4.95;;;1.50;99.90;;;;;;5035827;28;20195;-77
2023/01/19 00:33:14;;;;;;;6.90;4.55;;;1.50;99.90;;;;;;5035477;28;20202;-77
2023/01/19 00:35:42;;;;;;;8.35;5.80;;;1.50;99.90;;;;;;5034816;28;20211;-77
2023/01/19 00:38:10;;;;;;;4.60;3.75;;;1.50;99.90;;;;;;5035321;28;20673;-76
2023/01/19 00:40:37;;;;;;;7.60;4.72;;;1.50;99.90;;;;;;5035713;28;20219;-77
2023/01/19 00:43:04;;;;;;;9.10;4.50;;;1.60;99.90;;;;;;5035924;28;20546;-77
2023/01/19 00:45:31;;;;;;;4.90;3.80;;;1.50;99.90;;;;;;5035238;28;20230;-77
2023/01/19 00:47:58;;;;;;;1.40;1.30;;;1.50;99.90;;;;;;5036327;28;20198;-77
2023/01/19 00:50:28;;;;;;;6.15;4.47;;;1.60;99.90;;;;;;5036273;28;20217;-77
2023/01/19 00:52:56;;;;;;;10.48;5.03;;;1.60;99.90;;;;;;5035175;28;20205;-77
2023/01/19 00:55:24;;;;;;;11.70;3.70;;;1.60;99.90;;;;;;5034756;28;20222;-77
2023/01/19 00:57:51;;;;;;;3.53;2.38;;;1.50;99.90;;;;;;5035095;28;20542;-77
2023/01/19 01:00:20;;;;;;;8.10;5.35;;;1.50;99.90;;;;;;5034796;28;20807;-76
2023/01/19 01:02:47;;;;;;;3.80;2.95;;;1.50;99.90;;;;;;5035162;28;20686;-77
2023/01/19 01:05:15;;;;;;;3.83;3.45;;;1.50;99.90;;;;;;5033993;28;20306;-76
2023/01/19 01:07:44;;;;;;;3.50;3.20;;;1.50;99.90;;;;;;5035135;28;20282;-77
2023/01/19 01:10:12;;;;;;;3.88;3.53;;;1.50;99.90;;;;;;5034257;28;20260;-77
2023/01/19 01:12:40;;;;;;;0.68;0.68;;;1.50;99.90;;;;;;5034676;28;20286;-77
2023/01/19 01:15:09;;;;;;;4.43;4.03;;;1.50;99.90;;;;;;5034778;28;20215;-78
2023/01/19 01:17:37;;;;;;;4.88;4.47;;;1.50;99.90;;;;;;5034278;28;20286;-77
2023/01/19 01:20:04;;;;;;;31.52;5.38;;;1.50;99.90;;;;;;5034246;28;20285;-77
2023/01/19 01:22:31;;;;;;;9.38;6.55;;;1.50;99.90;;;;;;5034827;28;20201;-77
2023/01/19 01:24:59;;;;;;;10.52;8.93;;;1.50;99.90;;;;;;5034692;28;20219;-77
2023/01/19 01:27:26;;;;;;;5.38;3.45;;;1.50;99.90;;;;;;5034332;28;20282;-77
2023/01/19 01:29:53;;;;;;;5.63;4.05;;;1.60;99.90;;;;;;5034778;28;20610;-78
2023/01/19 01:32:20;;;;;;;5.18;4.25;;;1.60;99.90;;;;;;5033822;28;20286;-77
2023/01/19 01:34:46;;;;;;;7.68;3.63;;;1.60;99.90;;;;;;5034252;28;20306;-77
2023/01/19 01:37:13;;;;;;;5.65;2.60;;;1.60;99.90;;;;;;5034332;28;20615;-77
2023/01/19 01:39:40;;;;;;;6.47;4.47;;;1.60;99.90;;;;;;5034251;28;20286;-77
2023/01/19 01:42:16;;;;;;;2.95;2.70;;;1.60;99.90;;;;;;5033715;28;20221;-77
2023/01/19 01:44:51;;;;;;;1.63;1.27;;;1.60;99.90;;;;;;5033407;28;20229;-77
2023/01/19 01:47:25;;;;;;;2.97;2.80;;;1.60;99.90;;;;;;5034129;28;20198;-77
2023/01/19 01:49:57;;;;;;;7.88;6.38;;;1.60;99.90;;;;;;5034057;28;20205;-77
2023/01/19 01:52:26;;;;;;;3.72;2.65;;;1.60;99.90;;;;;;5033723;28;20205;-76
2023/01/19 01:54:53;;;;;;;9.40;7.75;;;1.60;99.90;;;;;;5033249;28;20223;-77
2023/01/19 01:57:22;;;;;;;2.97;2.75;;;1.60;99.90;;;;;;5033502;28;20576;-78
2023/01/19 01:59:50;;;;;;;4.65;4.07;;;1.60;99.90;;;;;;5033697;28;20257;-78
2023/01/19 02:05:09;;;;;;;5.32;4.55;;;1.70;99.90;;;;;;5033093;28;20214;-77
2023/01/19 02:13:19;;;;;;;9.88;3.58;;;1.70;99.90;;;;;;5033390;28;20640;-77
2023/01/19 02:15:48;;;;;;;5.95;2.92;;;1.70;99.90;;;;;;5033473;28;20218;-77
2023/01/19 02:18:15;;;;;;;4.35;3.80;;;1.70;99.90;;;;;;5033873;28;20732;-77
2023/01/19 02:20:50;;;;;;;3.70;3.40;;;1.70;99.90;;;;;;5033595;28;20683;-77
2023/01/19 02:23:23;;;;;;;3.42;2.67;;;1.70;99.90;;;;;;5033892;28;20257;-77
2023/01/19 02:25:53;;;;;;;8.68;5.07;;;1.70;99.90;;;;;;5032819;28;20319;-77
2023/01/19 02:28:20;;;;;;;9.70;5.03;;;1.60;99.90;;;;;;5033213;28;20205;-76
2023/01/19 02:30:47;;;;;;;5.70;3.90;;;1.60;99.90;;;;;;5032811;28;20198;-77
2023/01/19 02:33:13;;;;;;;2.58;2.38;;;1.60;99.90;;;;;;5033012;28;20191;-77
2023/01/19 02:35:42;;;;;;;7.03;4.90;;;1.50;99.90;;;;;;5032568;28;20239;-77
2023/01/19 02:38:10;;;;;;;6.57;5.88;;;1.50;99.90;;;;;;5032015;28;20206;-77
2023/01/19 02:40:38;;;;;;;3.78;3.47;;;1.50;99.90;;;;;;5032257;28;20201;-77
2023/01/19 02:43:07;;;;;;;3.25;2.25;;;1.60;99.90;;;;;;5033539;28;20195;-77
2023/01/19 02:45:36;;;;;;;6.85;5.18;;;1.60;99.90;;;;;;5034222;28;20224;-76
2023/01/19 02:48:04;;;;;;;5.65;3.80;;;1.60;99.90;;;;;;5034610;28;20211;-77
2023/01/19 02:50:40;;;;;;;21.45;5.65;;;1.60;99.90;;;;;;5032774;28;20249;-77
2023/01/19 02:53:35;;;;;;;5.78;3.80;;;1.60;99.90;;;;;;5032217;28;20668;-77
2023/01/19 02:56:18;;;;;;;3.50;3.30;;;1.60;99.90;;;;;;5032650;28;20277;-77
2023/01/19 02:58:53;;;;;;;5.65;2.65;;;1.60;99.90;;;;;;5033375;28;20222;-77
2023/01/19 03:01:28;;;;;;;8.38;4.68;;;1.70;99.90;;;;;;5032745;28;20859;-77
2023/01/19 03:04:01;;;;;;;1.35;1.25;;;1.60;99.90;;;;;;5032661;28;20179;-77
2023/01/19 03:06:39;;;;;;;7.78;6.97;;;1.60;99.90;;;;;;5032509;28;20223;-77
2023/01/19 03:09:13;;;;;;;10.45;6.63;;;1.60;99.90;;;;;;5032719;28;20199;-77
2023/01/19 03:11:44;;;;;;;2.60;2.47;;;1.50;99.90;;;;;;5032819;28;20198;-77
2023/01/19 03:14:17;;;;;;;8.23;4.30;;;1.50;99.90;;;;;;5032814;28;20194;-78
2023/01/19 03:16:47;;;;;;;7.63;4.95;;;1.50;99.90;;;;;;5032428;28;20197;-77
2023/01/19 03:19:20;;;;;;;5.78;3.70;;;1.50;99.90;;;;;;5033295;28;20617;-77
2023/01/19 03:21:49;;;;;;;9.52;5.10;;;1.60;99.90;;;;;;5032350;28;20698;-77
2023/01/19 03:24:17;;;;;;;12.45;6.18;;;1.60;99.90;;;;;;5032696;28;20191;-77
2023/01/19 03:26:48;;;;;;;15.73;6.85;;;1.60;99.90;;;;;;5032168;28;20661;-77
2023/01/19 03:29:21;;;;;;;1.80;1.70;;;1.60;99.90;;;;;;5033053;28;20289;-77
2023/01/19 03:31:50;;;;;;;2.80;2.60;;;1.60;99.90;;;;;;5032529;28;20210;-77
2023/01/19 03:34:20;;;;;;;14.30;3.20;;;1.60;99.90;;;;;;5032528;28;20195;-76
2023/01/19 03:36:52;;;;;;;7.82;4.72;;;1.60;99.90;;;;;;5032467;28;20195;-77
2023/01/19 03:39:22;;;;;;;4.68;3.53;;;1.60;99.90;;;;;;5031988;28;20183;-77
2023/01/19 03:41:54;;;;;;;11.70;4.05;;;1.60;99.90;;;;;;5032331;28;20632;-77
2023/01/19 03:44:24;;;;;;;5.72;3.97;;;1.60;99.90;;;;;;5031798;28;20260;-76
2023/01/19 03:46:51;;;;;;;7.10;5.55;;;1.60;99.90;;;;;;5031893;28;20588;-77
2023/01/19 03:49:18;;;;;;;6.72;4.60;;;1.60;99.90;;;;;;5032387;28;20226;-77
2023/01/19 03:51:46;;;;;;;6.85;3.42;;;1.60;99.90;;;;;;5035914;28;20199;-77
2023/01/19 03:54:12;;;;;;;14.20;5.30;;;1.60;99.90;;;;;;5036368;28;20195;-77
2023/01/19 03:56:39;;;;;;;9.70;7.68;;;1.60;99.90;;;;;;5037077;28;20234;-77
2023/01/19 03:59:06;;;;;;;4.65;3.20;;;1.60;99.90;;;;;;5037367;28;20294;-77
2023/01/19 04:01:35;;;;;;;4.70;3.50;;;1.60;99.90;;;;;;5036909;28;20206;-77
2023/01/19 04:04:01;;;;;;;9.50;5.30;;;1.60;99.90;;;;;;5037575;28;20226;-77
2023/01/19 04:06:28;;;;;;;6.78;4.45;;;1.50;99.90;;;;;;5035268;28;20234;-76
2023/01/19 04:08:55;;;;;;;8.15;4.60;;;1.40;99.90;;;;;;5035628;28;20282;-77
2023/01/19 04:11:22;;;;;;;2.58;2.25;;;1.40;99.90;;;;;;5035407;28;20257;-77
2023/01/19 04:13:49;;;;;;;12.20;5.82;;;1.30;99.90;;;;;;5036091;28;20257;-78
2023/01/19 04:16:18;;;;;;;5.60;4.30;;;1.20;99.90;;;;;;5035694;28;20321;-77
2023/01/19 04:18:47;;;;;;;7.43;5.70;;;1.10;99.90;;;;;;5036356;28;20202;-79
2023/01/19 04:21:14;;;;;;;5.65;4.88;;;1.00;99.90;;;;;;5037493;28;20209;-78
2023/01/19 04:23:41;;;;;;;7.82;4.68;;;0.90;99.90;;;;;;5035695;28;20215;-78
2023/01/19 04:26:08;;;;;;;13.48;5.82;;;0.90;99.90;;;;;;5035865;28;20219;-78
2023/01/19 04:28:36;;;;;;;1.73;0.93;;;0.90;99.90;;;;;;5036630;28;20195;-78
2023/01/19 04:31:04;;;;;;;7.85;7.05;;;0.80;99.90;;;;;;5036385;28;20200;-78
2023/01/19 04:33:31;;;;;;;5.45;4.40;;;0.80;99.90;;;;;;5036974;28;20241;-79
2023/01/19 04:36:00;;;;;;;3.70;3.33;;;0.80;99.90;;;;;;5035528;28;20211;-79
2023/01/19 04:38:27;;;;;;;16.17;7.93;;;0.80;99.90;;;;;;5036640;28;20308;-80
2023/01/19 04:40:54;;;;;;;2.00;1.83;;;0.80;99.90;;;;;;5036749;28;20195;-80
2023/01/19 04:43:22;;;;;;;6.38;5.32;;;0.80;99.90;;;;;;5036825;28;20207;-79
2023/01/19 04:45:49;;;;;;;4.20;3.45;;;0.70;99.90;;;;;;5035929;28;20306;-79
2023/01/19 04:48:17;;;;;;;21.23;8.68;;;0.80;99.90;;;;;;5037140;28;20680;-80
2023/01/19 04:50:44;;;;;;;7.93;4.32;;;0.70;99.90;;;;;;5038024;28;20199;-80
2023/01/19 04:53:12;;;;;;;14.43;8.35;;;0.70;99.90;;;;;;5038145;28;20625;-80
2023/01/19 04:55:39;;;;;;;14.52;7.45;;;0.70;99.90;;;;;;5036141;28;20220;-78
2023/01/19 04:58:06;;;;;;;18.75;9.80;;;0.70;99.90;;;;;;5036199;28;20278;-80
2023/01/19 05:00:33;;;;;;;9.25;5.38;;;0.70;99.90;;;;;;5035928;28;20282;-80
2023/01/19 05:03:00;;;;;;;16.55;7.32;;;0.70;99.90;;;;;;5034913;28;20200;-79
2023/01/19 05:05:27;;;;;;;10.57;5.70;;;0.70;99.90;;;;;;5035313;28;20265;-79
2023/01/19 05:07:54;;;;;;;9.65;5.65;;;0.70;99.90;;;;;;5035458;28;20219;-79
2023/01/19 05:10:23;;;;;;;8.55;7.13;;;0.70;99.90;;;;;;5035626;28;20192;-80
2023/01/19 05:12:50;;;;;;;5.93;5.28;;;0.80;99.90;;;;;;5035956;28;20249;-79
2023/01/19 05:15:17;;;;;;;10.60;6.57;;;0.70;99.90;;;;;;5035094;28;20223;-80
2023/01/19 05:17:43;;;;;;;7.07;6.05;;;0.70;99.90;;;;;;5035814;28;20231;-80
2023/01/19 05:20:11;;;;;;;12.50;6.82;;;0.80;99.90;;;;;;5035614;28;20285;-80
2023/01/19 05:22:39;;;;;;;6.75;5.43;;;0.80;99.90;;;;;;5035212;28;20209;-78
2023/01/19 05:25:08;;;;;;;2.95;2.70;;;0.80;99.90;;;;;;5035554;28;20314;-80
2023/01/19 05:27:37;;;;;;;4.32;2.55;;;0.80;99.90;;;;;;5035035;28;20219;-78
2023/01/19 05:30:05;;;;;;;12.07;6.22;;;0.70;99.90;;;;;;5034307;28;20200;-78
2023/01/19 05:32:32;;;;;;;7.60;6.95;;;0.70;99.90;;;;;;5034960;28;20205;-79
2023/01/19 05:34:59;;;;;;;8.65;4.82;;;0.70;99.90;;;;;;5034598;28;20215;-79
2023/01/19 05:37:26;;;;;;;15.88;8.85;;;0.70;99.90;;;;;;5034338;28;20192;-79
2023/01/19 05:39:53;;;;;;;11.20;6.70;;;0.70;99.90;;;;;;5035440;28;20213;-80
2023/01/19 05:42:20;;;;;;;12.85;6.72;;;0.70;99.90;;;;;;5035156;28;20281;-79
2023/01/19 05:44:48;;;;;;;5.22;3.22;;;0.70;99.90;;;;;;5034063;28;20309;-78
2023/01/19 05:47:15;;;;;;;20.38;9.50;;;0.70;99.90;;;;;;5026499;28;20229;-78
2023/01/19 05:49:42;;;;;;;10.25;8.00;;;0.70;99.90;;;;;;5015921;28;20224;-79
2023/01/19 05:52:09;;;;;;;5.88;2.88;;;0.70;99.90;;;;;;5032271;28;20298;-80
2023/01/19 05:54:39;;;;;;;11.30;3.17;;;0.70;99.90;;;;;;5035146;28;20302;-79
2023/01/19 05:57:06;;;;;;;4.80;3.03;;;0.70;99.90;;;;;;5098206;22;20224;-81
2023/01/19 05:59:32;;;;;;;6.03;4.60;;;0.70;99.90;;;;;;5061603;28;20199;-80
2023/01/19 06:02:01;;;;;;;3.80;2.00;;;0.70;99.90;;;;;;5057789;28;20202;-80
2023/01/19 06:04:28;;;;;;;6.68;3.40;;;0.70;99.90;;;;;;5056495;28;20201;-81
2023/01/19 06:06:55;;;;;;;7.78;3.78;;;0.70;99.90;;;;;;5036021;28;20291;-79
2023/01/19 06:09:21;;;;;;;2.63;2.15;;;0.70;99.90;;;;;;5037596;28;20290;-79
2023/01/19 06:11:48;;;;;;;4.65;4.25;;;0.70;99.90;;;;;;5035201;28;20243;-84
2023/01/19 06:14:15;;;;;;;2.42;2.33;;;0.70;99.90;;;;;;5020299;28;20256;-81
2023/01/19 06:16:42;;;;;;;4.63;4.20;;;0.70;99.90;;;;;;5019851;28;20208;-81
2023/01/19 06:19:10;;;;;;;5.20;3.22;;;0.70;99.90;;;;;;5020174;28;20204;-82
2023/01/19 06:21:37;;;;;;;10.35;4.93;;;0.70;99.90;;;;;;5017542;28;20286;-82
2023/01/19 06:24:05;;;;;;;5.88;3.97;;;0.70;99.90;;;;;;5016996;28;20202;-82
2023/01/19 06:26:31;;;;;;;9.18;3.40;;;0.70;99.90;;;;;;5016772;28;20286;-80
2023/01/19 06:28:58;;;;;;;12.68;6.43;;;0.70;99.90;;;;;;5016708;28;20287;-82
2023/01/19 06:31:25;;;;;;;1.25;1.25;;;0.70;99.90;;;;;;5018336;28;20215;-82
2023/01/19 06:33:52;;;;;;;0.50;0.50;;;0.70;99.90;;;;;;5020280;28;20577;-82
2023/01/19 06:36:21;;;;;;;2.20;2.05;;;0.70;99.90;;;;;;5018726;28;20196;-81
2023/01/19 06:38:47;;;;;;;3.70;2.70;;;0.70;99.90;;;;;;5018786;28;20219;-82
2023/01/19 06:41:14;;;;;;;8.75;5.65;;;0.70;99.90;;;;;;5018297;28;20222;-83
2023/01/19 06:43:41;;;;;;;5.90;3.38;;;0.70;99.90;;;;;;5018642;28;20238;-82
2023/01/19 06:46:08;;;;;;;2.28;2.08;;;0.70;99.90;;;;;;5017819;28;20231;-83
2023/01/19 06:48:35;;;;;;;3.33;2.88;;;0.70;99.90;;;;;;5017370;28;20315;-83
2023/01/19 06:51:02;;;;;;;1.90;1.05;;;0.70;99.90;;;;;;5018222;28;20284;-83
2023/01/19 06:53:30;;;;;;;1.70;1.60;;;0.70;99.90;;;;;;5017983;28;20209;-81
2023/01/19 06:56:00;;;;;;;1.27;1.17;;;0.70;99.90;;;;;;5018897;28;20196;-83
2023/01/19 06:58:27;;;;;;;5.30;4.70;;;0.80;99.90;;;;;;5018704;28;20220;-83
2023/01/19 07:00:55;;;;;;;6.63;5.25;;;0.80;99.90;;;;;;5019500;28;20200;-83
2023/01/19 07:03:23;;;;;;;1.40;1.15;;;0.80;99.90;;;;;;5019404;28;20241;-84
2023/01/19 07:05:51;;;;;;;2.25;2.05;;;0.80;99.90;;;;;;5018747;28;20261;-84
2023/01/19 07:08:18;;;;;;;7.80;4.40;;;0.80;99.90;;;;;;5019083;28;20302;-82
2023/01/19 07:10:47;;;;;;;5.68;2.75;;;0.80;99.90;;;;;;5019663;28;20196;-83
2023/01/19 07:13:14;;;;;;;5.18;2.95;;;0.80;99.90;;;;;;5018972;28;20192;-83
2023/01/19 07:15:40;;;;;;;2.47;1.48;;;0.80;99.90;;;;;;5018187;28;20200;-83
2023/01/19 07:18:08;;;;;;;3.70;2.55;;;0.90;99.90;;;;;;5020019;28;20304;-84
2023/01/19 07:20:35;;;;;;;10.68;7.22;;;0.90;99.90;;;;;;5019373;28;20206;-83
2023/01/19 07:23:02;;;;;;;4.55;4.10;;;0.90;99.90;;;;;;5020255;28;20223;-84
2023/01/19 07:25:29;;;;;;;5.65;3.78;;;0.90;99.90;;;;;;5020968;28;20200;-83
2023/01/19 07:27:58;;;;;;;13.82;7.80;;;1.00;99.90;;;;;;5022205;28;20243;-81
2023/01/19 07:30:26;;;;;;;1.10;1.05;;;1.00;99.90;;;;;;5020336;28;20199;-82
2023/01/19 07:32:55;;;;;;;3.75;3.17;;;1.00;99.90;;;;;;5021191;28;20219;-81
2023/01/19 07:35:22;;;;;;;11.90;5.15;;;1.00;99.90;;;;;;5020602;28;20206;-83
2023/01/19 07:37:48;;;;;;;4.88;4.40;;;1.00;99.90;;;;;;5022893;28;20298;-84
2023/01/19 07:40:16;;;;;;;3.65;2.45;;;1.10;99.90;;;;;;5021979;28;20213;-83
2023/01/19 07:42:47;;;;;;;1.75;1.65;;;1.00;99.90;;;;;;5021862;28;20199;-83
2023/01/19 07:45:16;;;;;;;2.15;2.05;;;1.10;99.90;;;;;;5024657;28;20196;-81
2023/01/19 07:47:44;;;;;;;3.30;2.75;;;1.10;99.90;;;;;;5025724;28;20219;-82
2023/01/19 07:50:12;;;;;;;5.72;2.75;;;1.10;99.90;;;;;;5025184;28;20199;-82
2023/01/19 07:52:39;;;;;;;0.73;0.73;;;1.10;99.90;;;;;;5023525;28;20206;-81
2023/01/19 07:55:07;;;;;;;0.98;0.93;;;1.10;99.90;;;;;;5022805;28;20200;-83
2023/01/19 07:57:34;;;;;;;8.18;6.05;;;1.10;99.90;;;;;;5025442;28;20243;-82
2023/01/19 08:00:02;;;;;;;2.60;2.50;;;1.10;99.90;;;;;;5022010;28;20513;-83
2023/01/19 08:02:30;;;;;;;3.60;3.30;;;1.20;99.90;;;;;;5022073;28;20192;-80
2023/01/19 08:04:57;;;;;;;1.50;1.25;;;1.20;99.90;;;;;;5025581;28;20653;-82
2023/01/19 08:07:24;;;;;;;10.20;3.65;;;1.20;99.90;;;;;;5021882;28;20307;-82
2023/01/19 08:09:51;;;;;;;5.43;3.35;;;1.20;99.90;;;;;;5019407;28;20196;-82
2023/01/19 08:12:18;;;;;;;2.15;1.48;;;1.20;99.90;;;;;;5019316;28;20665;-82
2023/01/19 08:14:45;;;;;;;2.33;1.73;;;1.20;99.90;;;;;;5020148;28;20261;-82
2023/01/19 08:17:13;;;;;;;0.75;0.75;;;1.20;99.90;;;;;;5020036;28;20294;-82
2023/01/19 08:19:42;;;;;;;4.45;2.40;;;1.30;99.90;;;;;;5019718;28;20200;-83
2023/01/19 08:22:09;;;;;;;9.30;5.28;;;1.20;99.90;;;;;;5020008;28;20339;-82
2023/01/19 08:24:36;;;;;;;4.90;4.57;;;1.30;99.90;;;;;;5019198;28;20629;-81
2023/01/19 08:27:03;;;;;;;23.45;9.50;;;1.30;99.90;;;;;;5020223;28;20240;-81
2023/01/19 08:29:30;;;;;;;1.63;1.52;;;1.30;99.90;;;;;;5019981;28;20677;-81
2023/01/19 08:31:58;;;;;;;1.33;1.33;;;1.30;99.90;;;;;;5019168;28;20234;-82
2023/01/19 08:34:25;;;;;;;6.47;4.10;;;1.30;99.90;;;;;;5018271;28;20673;-81
2023/01/19 08:36:54;;;;;;;6.55;6.05;;;1.30;99.90;;;;;;5018990;28;20339;-81
2023/01/19 08:39:22;;;;;;;2.50;2.40;;;1.30;99.90;;;;;;5018578;28;20239;-81
2023/01/19 08:41:49;;;;;;;0.70;0.70;;;1.40;99.90;;;;;;5018202;28;20200;-81
2023/01/19 08:44:16;;;;;;;1.50;1.20;;;1.40;99.90;;;;;;5019091;28;20195;-82
2023/01/19 08:46:43;;;;;;;2.78;2.10;;;1.40;99.90;;;;;;5021906;28;20800;-79
2023/01/19 08:49:10;;;;;;;4.80;4.38;;;1.40;99.90;;;;;;5026993;28;20247;-79
2023/01/19 08:51:38;;;;;;;3.88;3.58;;;1.50;99.90;;;;;;5022581;28;20192;-81
2023/01/19 08:54:06;;;;;;;2.08;1.45;;;1.50;99.90;;;;;;5019266;28;20661;-81
2023/01/19 08:56:33;;;;;;;2.05;1.13;;;1.50;99.90;;;;;;5018435;28;20216;-81
2023/01/19 08:58:59;;;;;;;4.90;2.78;;;1.50;99.90;;;;;;5018207;28;20232;-82
2023/01/19 09:01:26;;;;;;;3.70;2.47;;;1.50;99.90;;;;;;5018859;28;20192;-80
2023/01/19 09:03:53;;;;;;;3.65;2.75;;;1.50;99.90;;;;;;5018968;28;20196;-82
2023/01/19 09:06:20;;;;;;;3.95;3.70;;;1.60;99.90;;;;;;5018116;28;20653;-81
2023/01/19 09:08:47;;;;;;;1.25;1.25;;;1.60;99.90;;;;;;5018124;28;20230;-81
2023/01/19 09:11:17;;;;;;;5.07;2.95;;;1.60;99.90;;;;;;5017247;28;20196;-82
2023/01/19 09:13:44;;;;;;;2.65;2.00;;;1.60;99.90;;;;;;5017342;28;20681;-81
2023/01/19 09:16:13;;;;;;;4.20;3.83;;;1.60;99.90;;;;;;5018058;28;20226;-81
2023/01/19 09:18:41;;;;;;;4.55;1.42;;;1.60;99.90;;;;;;5017253;28;20191;-81
2023/01/19 09:21:08;;;;;;;2.58;2.00;;;1.70;99.90;;;;;;5017371;28;20231;-81
2023/01/19 09:23:36;;;;;;;5.68;2.55;;;1.70;99.90;;;;;;5017262;28;20227;-82
2023/01/19 09:26:05;;;;;;;5.60;5.05;;;1.70;99.90;;;;;;5016648;28;20227;-81
2023/01/19 09:28:33;;;;;;;12.75;3.95;;;1.70;99.90;;;;;;5018038;28;20259;-81
2023/01/19 09:31:03;;;;;;;3.13;3.03;;;1.70;99.90;;;;;;5016825;28;20200;-81
2023/01/19 09:33:30;;;;;;;3.75;2.45;;;1.80;99.90;;;;;;5017274;28;20200;-79
2023/01/19 09:35:57;;;;;;;2.13;2.03;;;1.90;99.90;;;;;;5016416;28;20204;-81
2023/01/19 09:38:24;;;;;;;3.35;3.05;;;1.80;99.90;;;;;;5016940;28;20248;-81
2023/01/19 09:40:53;;;;;;;1.70;1.60;;;1.90;99.90;;;;;;5017793;28;20693;-82
2023/01/19 09:43:35;;;;;;;6.18;3.00;;;1.90;99.90;;;;;;5016852;28;20207;-81
2023/01/19 09:46:05;;;;;;;3.90;3.50;;;1.90;99.90;;;;;;5018118;28;20526;-80
2023/01/19 09:48:46;;;;;;;0.63;0.63;;;1.90;99.90;;;;;;5018262;28;20223;-82
2023/01/19 09:51:16;;;;;;;6.15;1.40;;;1.90;99.90;;;;;;5017870;28;20180;-82
2023/01/19 09:54:02;;;;;;;1.17;0.63;;;1.90;99.90;;;;;;5018381;28;20275;-82
2023/01/19 09:56:30;;;;;;;3.45;2.72;;;1.90;99.90;;;;;;5017344;28;20738;-82
2023/01/19 09:59:00;;;;;;;4.10;3.70;;;1.90;99.90;;;;;;5017698;28;20606;-81
2023/01/19 10:01:44;;;;;;;0.40;0.40;;;1.90;99.90;;;;;;5017784;28;20215;-79
2023/01/19 10:04:32;;;;;;;1.27;0.93;;;1.90;99.90;;;;;;5016469;28;20196;-81
2023/01/19 10:07:08;;;;;;;2.95;2.10;;;2.00;99.90;;;;;;5016041;28;20267;-81
2023/01/19 10:09:51;;;;;;;0.40;0.40;;;1.90;99.90;;;;;;5015791;28;20303;-82
2023/01/19 10:12:27;;;;;;;9.35;4.95;;;1.90;99.90;;;;;;5015889;28;20287;-81
2023/01/19 10:15:02;;;;;;;4.30;4.00;;;1.90;99.90;;;;;;5015684;28;20222;-83
2023/01/19 10:17:39;;;;;;;1.67;1.58;;;1.90;99.90;;;;;;5015286;28;20262;-81
2023/01/19 10:20:15;;;;;;;0.82;0.82;;;1.90;99.90;;;;;;5016205;28;20212;-81
2023/01/19 10:22:43;;;;;;;5.60;3.08;;;2.00;99.90;;;;;;5016111;28;20231;-81
2023/01/19 10:25:17;;;;;;;3.65;3.35;;;2.00;99.90;;;;;;5015383;28;20259;-81
2023/01/19 10:27:45;;;;;;;6.45;4.45;;;2.00;99.90;;;;;;5016276;28;20332;-81
2023/01/19 10:30:19;;;;;;;10.80;2.97;;;2.00;99.90;;;;;;5018421;28;20343;-81
2023/01/19 10:32:46;;;;;;;3.85;1.90;;;2.10;99.90;;;;;;5020527;28;20200;-81
2023/01/19 10:35:22;;;;;;;4.32;4.03;;;2.10;99.90;;;;;;5018043;28;20196;-80
2023/01/19 10:37:50;;;;;;;8.88;7.25;;;2.10;99.90;;;;;;5016489;28;20258;-82
2023/01/19 10:40:27;;;;;;;8.63;5.47;;;2.10;99.90;;;;;;5016236;28;20203;-81
2023/01/19 10:42:54;;;;;;;13.23;6.93;;;2.20;99.90;;;;;;5015551;28;20206;-81
2023/01/19 10:45:24;;;;;;;2.08;1.98;;;2.20;99.90;;;;;;5016359;28;20283;-81
2023/01/19 10:47:54;;;;;;;2.63;2.35;;;2.30;99.90;;;;;;5015847;28;20251;-82
2023/01/19 10:50:26;;;;;;;0.65;0.65;;;2.50;99.90;;;;;;5015751;28;20215;-79
2023/01/19 10:52:55;;;;;;;7.30;6.47;;;2.50;99.90;;;;;;5015858;28;20206;-80
2023/01/19 10:55:27;;;;;;;3.97;3.60;;;2.60;99.90;;;;;;5015719;28;20238;-82
2023/01/19 10:57:55;;;;;;;10.95;7.07;;;2.60;99.90;;;;;;5017836;28;20230;-79
2023/01/19 11:00:36;;;;;;;1.05;1.05;;;2.50;99.90;;;;;;5025589;28;20264;-80
2023/01/19 11:03:04;;;;;;;31.95;9.10;;;2.50;99.90;;;;;;5018396;28;20270;-81
2023/01/19 11:05:33;;;;;;;3.35;3.05;;;2.60;99.90;;;;;;5014765;28;20203;-81
2023/01/19 11:08:00;;;;;;;13.27;5.30;;;2.60;99.90;;;;;;5015887;28;20223;-82
2023/01/19 11:10:29;;;;;;;1.00;1.00;;;2.60;99.90;;;;;;5015273;28;20688;-82
2023/01/19 11:13:02;;;;;;;6.35;4.57;;;2.70;99.90;;;;;;5016078;28;20681;-81
2023/01/19 11:15:34;;;;;;;7.80;7.13;;;2.60;99.90;;;;;;5016114;28;20186;-80
2023/01/19 11:18:02;;;;;;;2.83;2.60;;;2.60;99.90;;;;;;5015520;28;20212;-81
2023/01/19 11:20:34;;;;;;;1.50;1.40;;;2.60;99.90;;;;;;5015612;28;20757;-81
2023/01/19 11:23:05;;;;;;;8.25;5.25;;;2.50;99.90;;;;;;5015370;28;20268;-81
2023/01/19 11:25:34;;;;;;;5.03;2.92;;;2.40;99.90;;;;;;5014988;28;20203;-81
2023/01/19 11:28:02;;;;;;;4.80;2.83;;;2.40;99.90;;;;;;5014602;28;20593;-81
2023/01/19 11:30:29;;;;;;;6.72;4.10;;;2.40;99.90;;;;;;5015630;28;20687;-83
2023/01/19 11:32:57;;;;;;;2.08;1.92;;;2.40;99.90;;;;;;5015006;28;20206;-80
2023/01/19 11:35:36;;;;;;;13.10;2.88;;;2.40;99.90;;;;;;5014930;28;20234;-82
2023/01/19 11:38:18;;;;;;;7.70;3.88;;;2.40;99.90;;;;;;5015633;28;20219;-82
2023/01/19 11:40:52;;;;;;;2.03;1.92;;;2.40;99.90;;;;;;5016149;28;20192;-80
2023/01/19 11:43:20;;;;;;;7.10;5.10;;;2.40;99.90;;;;;;5014497;28;20200;-81
2023/01/19 11:45:47;;;;;;;13.95;7.53;;;2.40;99.90;;;;;;5014457;28;20290;-81
2023/01/19 11:48:23;;;;;;;9.18;5.20;;;2.40;99.90;;;;;;5014004;28;20303;-80
2023/01/19 11:50:50;;;;;;;3.38;3.28;;;2.40;99.90;;;;;;5013855;28;20245;-81
2023/01/19 11:53:23;;;;;;;4.53;2.55;;;2.40;99.90;;;;;;5014084;28;20204;-81
2023/01/19 11:55:56;;;;;;;12.02;7.63;;;2.40;99.90;;;;;;5014023;28;20196;-81
2023/01/19 11:58:24;;;;;;;23.05;8.38;;;2.40;99.90;;;;;;5015115;28;20220;-81
2023/01/19 12:00:57;;;;;;;3.50;3.17;;;2.40;99.90;;;;;;5013800;28;20196;-82
2023/01/19 12:03:30;;;;;;;14.95;7.85;;;2.40;99.90;;;;;;5014409;28;20195;-80
2023/01/19 12:06:01;;;;;;;19.58;7.63;;;2.30;99.90;;;;;;5014589;28;20188;-81
2023/01/19 12:08:35;;;;;;;3.75;2.38;;;2.30;99.90;;;;;;5014862;28;20220;-81
2023/01/19 12:11:03;;;;;;;14.07;7.70;;;2.30;99.90;;;;;;5014727;28;20623;-82
2023/01/19 12:13:33;;;;;;;4.38;4.07;;;2.40;99.90;;;;;;5017918;28;20196;-79
2023/01/19 12:16:04;;;;;;;5.47;4.35;;;2.30;99.90;;;;;;5017899;28;20259;-81
2023/01/19 12:18:38;;;;;;;4.40;3.15;;;2.30;99.90;;;;;;5018320;28;20250;-81
2023/01/19 12:21:05;;;;;;;2.63;1.70;;;2.40;99.90;;;;;;5017402;28;20299;-80
2023/01/19 12:23:54;;;;;;;7.63;6.38;;;2.50;99.90;;;;;;5017866;28;20702;-79
2023/01/19 12:26:28;;;;;;;23.30;11.63;;;2.50;99.90;;;;;;5017762;28;20259;-81
2023/01/19 12:28:57;;;;;;;1.20;1.10;;;2.50;99.90;;;;;;5017415;28;20196;-81
2023/01/19 12:31:24;;;;;;;0.40;0.40;;;2.50;99.90;;;;;;5017360;28;20246;-81
2023/01/19 12:33:53;;;;;;;0.63;0.63;;;2.60;99.90;;;;;;5017040;28;20231;-81
2023/01/19 12:36:38;;;;;;;9.18;6.68;;;2.60;99.90;;;;;;5017542;28;20198;-82
2023/01/19 12:39:13;;;;;;;3.72;3.25;;;2.70;99.90;;;;;;5018204;28;20188;-81
2023/01/19 12:41:41;;;;;;;4.03;2.42;;;2.70;99.90;;;;;;5018704;28;20542;-81
2023/01/19 12:44:26;;;;;;;0.88;0.88;;;2.70;99.90;;;;;;5017894;28;20650;-82
2023/01/19 12:47:02;;;;;;;2.35;2.15;;;2.70;99.90;;;;;;5017619;28;20216;-82
2023/01/19 12:49:34;;;;;;;17.80;9.77;;;2.80;99.90;;;;;;5018378;28;20657;-81
2023/01/19 12:52:21;;;;;;;6.15;5.30;;;2.70;99.90;;;;;;5017710;28;20206;-81
2023/01/19 12:54:58;;;;;;;12.80;5.22;;;2.60;99.90;;;;;;5017616;28;20638;-81
2023/01/19 12:57:29;;;;;;;3.92;2.22;;;2.60;99.90;;;;;;5016200;28;20224;-82
2023/01/19 12:59:58;;;;;;;4.75;3.13;;;2.60;99.90;;;;;;5017089;28;20196;-81
2023/01/19 13:02:49;;;;;;;11.32;5.90;;;2.60;99.90;;;;;;5016980;28;20192;-81
2023/01/19 13:05:24;;;;;;;20.52;5.97;;;2.60;99.90;;;;;;5016882;28;20206;-81
2023/01/19 13:08:13;;;;;;;5.75;5.35;;;2.60;99.90;;;;;;5016455;28;20682;-81
2023/01/19 13:11:20;;;;;;;2.05;1.95;;;2.50;99.90;;;;;;5019755;28;20283;-80
2023/01/19 13:14:29;;;;;;;3.15;2.90;;;2.60;99.90;;;;;;5027797;28;20206;-80
2023/01/19 13:17:18;;;;;;;4.10;3.83;;;2.60;99.90;;;;;;5017697;28;20247;-81